TNCB/BON METAR and TAF weather

Enter ICAO airport designator
Station Type Date Time Source
TNCB METAR 2019/08/22 08:55 UTC NOAA

TNCB 220855Z AUTO 10009KT 9999 BKN001/// 28/24 Q1013


Station Type Date Time Source
TNCB Decoded METAR 2019/08/22 08:55 UTC NOAA

Station name not available
Aug 22, 2019 - 04:55 AM EDT / 2019.08.22 0855 UTC
Wind: from the E (100 degrees) at 10 MPH (9 KT):0
Visibility: greater than 7 mile(s):0
Sky conditions: mostly cloudy
Temperature: 82 F (28 C)
Dew Point: 75 F (24 C)
Relative Humidity: 78%
Pressure (altimeter): 29.91 in. Hg (1013 hPa)
ob: TNCB 220855Z AUTO 10009KT 9999 BKN001/// 28/24 Q1013
cycle: 9

Station Type Date Time Source
TNCB TAF 2019/08/22 06:27 UTC NOAA

TAF TAF TNCB 220500Z 2206/2312 09013KT 9999 SCT018 PROB30
TEMPO 2306/2312 6000 SHRA SCT016CB

Example: see airport list